Aviation Digital Data Service (ADDS)

Output produced by METARs form (1153 UTC 11 December 2016)
found at http://www.aviationweather.gov/adds/metars/
 
KDOV 111058Z AUTO 00000KT 10SM CLR M02/M06 A3054 RMK AO2 SLP345 T10231065 $
TAF KDOV 110800Z 1108/1214 30006KT 9999 BKN060 620609 QNH3007INS WND 15006KT AFT 1118 
     BECMG 1205/1206 19009KT 8000 -RA OVC006 QNH2990INS TX06/1208Z TNM04/1108Z